Tiempo atmosférico en la estación meteorológica de Baztan, Irurita, Navarra (183 m.)



Fecha
DESCASC
Temp. máxima en grados centígrados (hora)
DESCASC
Temp. mínima en grados centígrados (hora)
DESCASC
Temp. media en grados centígrados
DESCASC
Racha de viento máxima en m/sg (hora)
DESCASC
Velocidad máxima media en intervalos de 10 minutos(hora)
DESCASC
Precipitaciones diarias en mm
DESCASC
Precipitaciones de 00:00 a 06:00 en mm
DESCASC
Precipitaciones de 06:00 a 12:00 en mm
DESCASC
Precipitaciones de 12:00 a 18:00 en mm
DESCASC
Precipitaciones de 18:00 a 24:00 en mm
DESCASC
16-01-2020 17 (14:00) 0.5 (00:50) 8.8 13.61 (15:20) 6.67 (12:10) 0 0 0 0 0
15-01-2020 14.4 (15:50) 1.1 (23:50) 7.7 13.89 (03:00) 6.67 (03:00) 0 0 0 0 0
14-01-2020 14.2 (14:30) 2.8 (01:10) 8.5 11.11 (21:30) 4.72 (16:50) 0 0 0 0 0
13-01-2020 12.3 (16:20) -0.8 (07:50) 5.8 5 (16:00) 2.5 (16:00) 0 0 0 0 0
12-01-2020 11.4 (15:50) -2 (-00:0) 4.7 1.67 (16:10) 1.11 (16:40) 0 0 0 0 0
11-01-2020 10 (16:10) -0.7 (-00:0) 4.7 1.94 (07:30) 1.11 (17:00) 0 0 0 0 0
10-01-2020 9.5 (12:20) 4.2 (00:00) 6.8 4.72 (16:00) 2.5 (16:10) 16.2 2.1 4.9 8.7 0.5
09-01-2020 15.1 (15:40) 1.1 (00:00) 8.1 11.67 (16:00) 5 (16:00) 2 0 0 0 2
08-01-2020 16.4 (16:00) 1 (00:00) 8.7 1.94 (16:50) 1.39 (16:40) 0 0 0 0 0
07-01-2020 15.2 (15:50) 1.7 (00:00) 8.4 2.22 (12:10) 1.11 (06:10) 0 0 0 0 0
06-01-2020 15.5 (16:00) -1.2 (-00:0) 7.1 3.89 (14:50) 1.94 (17:40) 0 0 0 0 0
05-01-2020 13.6 (15:20) 0.2 (00:00) 6.9 2.78 (16:50) 1.67 (15:10) 0 0 0 0 0
04-01-2020 11.5 (13:20) 3.1 (00:00) 7.3 4.17 (13:50) 2.22 (21:10) 2.5 1.1 1.3 0.1 0
03-01-2020 7.4 (17:00) -2.4 (-00:0) 2.5 1.67 (08:40) 0.83 (08:40) 0 0 0 0 0
02-01-2020 12.8 (14:10) -1.8 (-00:0) 5.5 5.83 (15:10) 2.5 (16:50) 0 0 0 0 0
01-01-2020 13.8 (16:10) -0.5 (-00:0) 6.7 2.78 (06:00) 1.39 (05:00) 0 0 0 0 0
31-12-2019 13.5 (15:40) -3.4 (-00:0) 5 2.22 (17:00) 1.39 (16:50) 0 0 0 0 0
30-12-2019 13.5 (15:30) -3.2 (-00:0) 5.1 3.33 (15:50) 1.67 (17:20) 0 0 0 0 0
29-12-2019 11.8 (15:30) -1.5 (-00:0) 5.2 1.11 (17:10) 0.83 (17:10) 0 0 0 0 0
28-12-2019 13.8 (15:50) -0.4 (00:00) 6.7 1.67 (16:40) 0.83 (16:40) 0 0 0 0 0
27-12-2019 11.4 (16:00) -0.1 (00:00) 5.6 2.22 (17:20) 1.11 (16:30) 0 0 0 0 0
26-12-2019 13.7 (06:30) 0.9 (00:00) 7.3 5.83 (05:40) 1.94 (06:30) 0.4 0 0.4 0 0
25-12-2019 18.8 (15:40) 3.5 (00:00) 11.1 2.5 (16:40) 1.39 (16:40) 0.1 0 0.1 0 0
24-12-2019 18.6 (16:20) 3.4 (00:00) 11 3.33 (16:50) 0.83 (16:20) 0 0 0 0 0
23-12-2019 14.5 (15:00) 7.5 (00:00) 11 6.39 (00:50) 1.67 (00:50) 1.6 1.6 0 0 0
22-12-2019 -- (--) -- (--) -- -- (--) -- (--) -- -- -- 4.1 7.9
21-12-2019 19.6 (15:10) 6.2 (00:00) 12.9 17.5 (20:50) 7.5 (13:50) 1.3 0.3 0.1 0.6 0.3
20-12-2019 -- (--) -- (--) -- -- (--) -- (--) -- -- -- 2.1 6.1

Gráficas

Temp. máximas Temp. mínimas Temp. medias Precipitaciones Rachas de viento máximas Velocidades máximas media en intervalos de 10 minutos

Datos horarios

Fecha y hora oficial Temperatura (ºC) Velocidad del viento (km/h) Dirección del viento Racha (km/h) Dirección de racha Precipitación (mm) Presión (hPa) Tendencia (hPa) Humedad (%)
2020-01-18 23:00:00 7.3 0 Calma 9 Oeste 0.9 -- -- 93
2020-01-18 22:00:00 7.8 2 Sur 13 Sudoeste 0.7 -- -- 91
2020-01-18 21:00:00 8.5 2 Noroeste 15 Sudoeste 3 -- -- 91
2020-01-18 20:00:00 9.5 5 Sur 28 Sudeste 1.3 -- -- 81
2020-01-18 19:00:00 11.5 13 Sur 42 Sudeste 0 -- -- 55
2020-01-18 18:00:00 11 12 Sur 55 Sudeste 0 -- -- 52
2020-01-18 17:00:00 12.4 18 Sur 47 Sudoeste 0 -- -- 47
2020-01-18 16:00:00 13.9 17 Sur 44 Sur 0 -- -- 42
2020-01-18 15:00:00 12.7 15 Sur 34 Sur 0 -- -- 44
2020-01-18 14:00:00 12.4 15 Sur 42 Sur 0 -- -- 43
2020-01-18 13:00:00 12.4 11 Sudeste 34 Sur 0 -- -- 44
2020-01-18 12:00:00 11 10 Sur 32 Sur 0 -- -- 50
2020-01-18 11:00:00 4.7 2 Norte 9 Noroeste 0 -- -- 97
2020-01-18 10:00:00 3.8 0 Calma 13 Norte 0 -- -- 98
2020-01-18 09:00:00 3.2 0 Calma 8 Noroeste 0 -- -- 98
2020-01-18 08:00:00 3.1 0 Calma 5 Noroeste 0 -- -- 98
2020-01-18 07:00:00 3.2 0 Calma 3 Sur 0 -- -- 98
2020-01-18 06:00:00 3.1 0 Calma 3 Nordeste 0 -- -- 98
2020-01-18 05:00:00 2.9 0 Calma 8 Norte 0 -- -- 98
2020-01-18 04:00:00 2.9 0 Calma 3 Nordeste 0 -- -- 98
2020-01-18 03:00:00 2.9 0 Calma 3 Sudeste 0 -- -- 98
2020-01-18 02:00:00 2.4 0 Calma 3 Norte 0 -- -- 98
2020-01-18 01:00:00 2.3 0 Calma 4 Noroeste 0 -- -- 97
2020-01-18 00:00:00 2.8 0 Calma 4 Sur 0 -- -- 97
2020-01-17 23:00:00 4 3 Sudoeste 7 Noroeste 0.1 -- -- 97
2020-01-17 22:00:00 4.7 0 Calma 3 Sudoeste 0 -- -- 97
2020-01-17 21:00:00 4.3 0 Calma 6 Sur 0 -- -- 95
2020-01-17 20:00:00 5.9 3 Sudoeste 10 Sudeste 0.4 -- -- 93
2020-01-17 19:00:00 5.5 2 Norte 6 Sudoeste 0 -- -- 89
2020-01-17 18:00:00 8.5 0 Calma 9 Oeste 0 -- -- 79
2020-01-17 17:00:00 9.9 4 Oeste 15 Noroeste 0 -- -- 63
2020-01-17 16:00:00 10.6 5 Sudoeste 17 Oeste 0 -- -- 59
2020-01-17 15:00:00 10.7 3 Oeste 16 Sur 0 -- -- 66
2020-01-17 14:00:00 9.7 4 Norte 21 Sur 0.1 -- -- 75
2020-01-17 13:00:00 9.1 0 Calma 9 Noroeste 0.3 -- -- 91
2020-01-17 12:00:00 8.6 0 Calma 10 Sur 1.7 -- -- 92
2020-01-17 11:00:00 8.3 4 Sudoeste 9 Sur 1.7 -- -- 91
2020-01-17 10:00:00 8.4 3 Sur 22 Norte 1.7 -- -- 89
2020-01-17 09:00:00 8.9 0 Calma 25 Noroeste 2.3 -- -- 92
2020-01-17 08:00:00 11.3 6 Noroeste 18 Oeste 0 -- -- 65
2020-01-17 07:00:00 7.6 0 Calma 10 Norte 0 -- -- 79
2020-01-17 06:00:00 7.9 2 Este 9 Oeste 0 -- -- 68
2020-01-17 05:00:00 11.5 5 Noroeste 18 Sudoeste 0 -- -- 53
2020-01-17 04:00:00 13.3 7 Sudoeste 24 Sudoeste 0 -- -- 48
2020-01-17 03:00:00 13.9 10 Sur 18 Sur 0 -- -- 48
2020-01-17 02:00:00 13.9 2 Sudeste 31 Sudoeste 0 -- -- 47
2020-01-17 01:00:00 14.2 0 Calma 40 Sudeste 0 -- -- 47
2020-01-17 00:00:00 14.9 19 Sur 47 Sudeste 0 -- -- 46
2020-01-16 23:00:00 15 15 Sudoeste 33 Sudoeste 0 -- -- 46
2020-01-16 22:00:00 15.2 10 Sur 35 Sur 0 -- -- 46
2020-01-16 21:00:00 15.3 11 Sudoeste 32 Sudoeste 0 -- -- 48
2020-01-16 20:00:00 15.5 12 Sur 31 Sur 0 -- -- 49
2020-01-16 19:00:00 15.2 10 Sur 38 Sur 0 -- -- 50
2020-01-16 18:00:00 15.2 11 Sur 27 Sur 0 -- -- 50
2020-01-16 17:00:00 15.5 13 Sur 37 Sur 0 -- -- 50
2020-01-16 16:00:00 15.6 16 Sur 49 Sur 0 -- -- 49
2020-01-16 15:00:00 15.4 18 Sur 43 Sur 0 -- -- 50
2020-01-16 14:00:00 16 11 Sur 33 Sur 0 -- -- 48
2020-01-16 13:00:00 14.7 12 Sur 46 Sudeste 0 -- -- 51
2020-01-16 12:00:00 14.1 20 Sudeste 48 Sur 0 -- -- 52
2020-01-16 11:00:00 14.1 18 Sudeste 43 Sudeste 0 -- -- 50
2020-01-16 10:00:00 12.8 12 Sur 32 Sudeste 0 -- -- 53
2020-01-16 09:00:00 9.3 4 Noroeste 18 Noroeste 0 -- -- 66
2020-01-16 08:00:00 7 3 Noroeste 30 Sur 0 -- -- 75
2020-01-16 07:00:00 10.9 8 Sur 23 Sudeste 0 -- -- 63
2020-01-16 06:00:00 9.2 5 Sur 27 Sudoeste 0 -- -- 68
2020-01-16 05:00:00 6.4 4 Sur 23 Sudoeste 0 -- -- 85
2020-01-16 04:00:00 1.9 0 Calma 17 Sudeste 0 -- -- 95
2020-01-16 03:00:00 2.2 3 Norte 19 Oeste 0 -- -- 95
2020-01-16 02:00:00 1 0 Calma 10 Sudeste 0 -- -- 97
2020-01-16 01:00:00 1 0 Calma 8 Oeste 0 -- -- 96
2020-01-16 00:00:00 1.3 0 Calma 6 Sudeste 0 -- -- 96
2020-01-15 23:00:00 2 0 Calma 7 Sudoeste 0 -- -- 95
2020-01-15 22:00:00 2.3 0 Calma 5 Sur 0 -- -- 93
2020-01-15 21:00:00 3.5 0 Calma 4 Nordeste 0 -- -- 89
2020-01-15 20:00:00 5.1 0 Calma 5 Sur 0 -- -- 83
2020-01-15 19:00:00 7.8 0 Calma 9 Oeste 0 -- -- 70
2020-01-15 18:00:00 11 0 Calma 14 Noroeste 0 -- -- 57
2020-01-15 17:00:00 13.1 4 Oeste 15 Noroeste 0 -- -- 49
2020-01-15 16:00:00 14 6 Noroeste 20 Noroeste 0 -- -- 48
2020-01-15 15:00:00 13.2 5 Noroeste 20 Sudoeste 0 -- -- 49
2020-01-15 14:00:00 13 5 Noroeste 20 Noroeste 0 -- -- 48
2020-01-15 13:00:00 13.4 4 Noroeste 28 Sudoeste 0 -- -- 48
2020-01-15 12:00:00 12.1 4 Oeste 17 Norte 0 -- -- 50
2020-01-15 11:00:00 11.7 3 Sudoeste 22 Sudoeste 0 -- -- 50
2020-01-15 10:00:00 11.2 6 Sudoeste 40 Sur 0 -- -- 50
2020-01-15 09:00:00 11 19 Sur 39 Sur 0 -- -- 49
2020-01-15 08:00:00 10.2 0 Calma 28 Sudeste 0 -- -- 50
2020-01-15 07:00:00 10.2 3 Sudeste 35 Noroeste 0 -- -- 51
2020-01-15 06:00:00 9.9 10 Noroeste 27 Noroeste 0 -- -- 50
2020-01-15 05:00:00 10.7 4 Oeste 42 Sudeste 0 -- -- 48
2020-01-15 04:00:00 10.8 18 Sur 42 Sudeste 0 -- -- 48
2020-01-15 03:00:00 10.6 24 Sur 50 Sudeste 0 -- -- 47
2020-01-15 02:00:00 10.6 15 Sur 40 Sur 0 -- -- 47
2020-01-15 01:00:00 10.7 12 Sur 28 Sudeste 0 -- -- 46
2020-01-15 00:00:00 10.2 6 Sudoeste 37 Sur 0 -- -- 49
2020-01-14 23:00:00 10.5 13 Sur 35 Sudeste 0 -- -- 47
2020-01-14 22:00:00 10.1 8 Sudoeste 40 Sudeste 0 -- -- 48
2020-01-14 21:00:00 9.6 12 Sur 33 Sur 0 -- -- 46
2020-01-14 20:00:00 8.6 0 Calma 29 Sur 0 -- -- 50
2020-01-14 19:00:00 9.2 6 Noroeste 15 Noroeste 0 -- -- 49
2020-01-14 18:00:00 10.7 5 Oeste 29 Sudoeste 0 -- -- 44
2020-01-14 17:00:00 11.6 9 Sudoeste 38 Sur 0 -- -- 43
2020-01-14 16:00:00 13.7 3 Norte 26 Sudoeste 0 -- -- 40
2020-01-14 15:00:00 13.5 4 Sudoeste 30 Sur 0 -- -- 40
2020-01-14 14:00:00 13.7 4 Noroeste 18 Noroeste 0 -- -- 40
2020-01-14 13:00:00 12.7 11 Sur 30 Sudoeste 0 -- -- 41
2020-01-14 12:00:00 11.9 8 Sur 19 Sudeste 0 -- -- 46
2020-01-14 11:00:00 11.7 2 Nordeste 13 Nordeste 0 -- -- 49
2020-01-14 10:00:00 10.9 4 Oeste 23 Sur 0 -- -- 47
2020-01-14 09:00:00 9.5 6 Sudoeste 15 Sudoeste 0 -- -- 49
2020-01-14 08:00:00 8.4 4 Noroeste 17 Noroeste 0 -- -- 50
2020-01-14 07:00:00 8.7 6 Noroeste 18 Noroeste 0 -- -- 51
2020-01-14 06:00:00 5.7 0 Calma 18 Oeste 0 -- -- 63
2020-01-14 05:00:00 9 6 Oeste 21 Noroeste 0 -- -- 45
2020-01-14 04:00:00 8.8 8 Oeste 25 Sudoeste 0 -- -- 48
2020-01-14 03:00:00 6.1 2 Sur 10 Oeste 0 -- -- 66
2020-01-14 02:00:00 4.3 3 Sur 12 Sudoeste 0 -- -- 75
2020-01-14 01:00:00 3.4 2 Sur 11 Sudoeste 0 -- -- 82
2020-01-14 00:00:00 4.3 4 Sudoeste 14 Oeste 0 -- -- 75
2020-01-13 23:00:00 3 3 Sur 9 Noroeste 0 -- -- 86
2020-01-13 22:00:00 2.7 5 Sudoeste 9 Sur 0 -- -- 86
2020-01-13 21:00:00 2.5 0 Calma 9 Sudoeste 0 -- -- 85
2020-01-13 20:00:00 3.8 3 Sur 9 Sudoeste 0 -- -- 82
2020-01-13 19:00:00 4.8 0 Calma 7 Sudeste 0 -- -- 79
2020-01-13 18:00:00 7.4 2 Sur 12 Noroeste 0 -- -- 65
2020-01-13 17:00:00 10.2 2 Oeste 16 Oeste 0 -- -- 54
2020-01-13 16:00:00 11.8 9 Noroeste 18 Noroeste 0 -- -- 47
2020-01-13 15:00:00 11.3 0 Calma 6 Este 0 -- -- 63
2020-01-13 14:00:00 8.9 0 Calma 3 Sudeste 0 -- -- 87
2020-01-13 13:00:00 5.7 0 Calma 4 Nordeste 0 -- -- 96
2020-01-13 12:00:00 2.4 0 Calma 5 Sudeste 0 -- -- 98
2020-01-13 11:00:00 0.4 0 Calma 4 Norte 0 -- -- 98
2020-01-13 10:00:00 -0.3 0 Calma 4 Sudoeste 0 -- -- 98
2020-01-13 09:00:00 -0.7 0 Calma 4 Sudoeste 0 -- -- 98
2020-01-13 08:00:00 -0.7 0 Calma 4 Sudoeste 0 -- -- 98
2020-01-13 07:00:00 -0.5 0 Calma 3 Sudeste 0 -- -- 98
2020-01-13 06:00:00 -0.4 0 Calma 3 Sudoeste 0 -- -- 98
2020-01-13 05:00:00 -0.4 0 Calma 3 Nordeste 0 -- -- 98
2020-01-13 04:00:00 -0.4 0 Calma 2 Sur 0 -- -- 98
2020-01-13 03:00:00 -0.2 0 Calma 2 Oeste 0 -- -- 98
2020-01-13 02:00:00 -0.1 0 Calma 0 Calma 0 -- -- 98
2020-01-13 01:00:00 0 0 Calma 4 Sur 0 -- -- 97
2020-01-13 00:00:00 -0.5 0 Calma 3 Noroeste 0 -- -- 97
2020-01-12 23:00:00 -0.2 0 Calma 2 Sur 0 -- -- 96
2020-01-12 22:00:00 0 0 Calma 3 Sudoeste 0 -- -- 96
2020-01-12 21:00:00 0.9 0 Calma 3 Sur 0 -- -- 95
2020-01-12 20:00:00 2.1 0 Calma 2 Este 0 -- -- 93
2020-01-12 19:00:00 3.2 0 Calma 3 Noroeste 0 -- -- 89
2020-01-12 18:00:00 5.8 0 Calma 5 Oeste 0 -- -- 82
2020-01-12 17:00:00 8.3 2 Sudoeste 6 Sudoeste 0 -- -- 72
2020-01-12 16:00:00 11.1 3 Sudoeste 5 Sudoeste 0 -- -- 63
2020-01-12 15:00:00 -- -- -- -- -- -- -- -- --
2020-01-12 14:00:00 5.4 0 Calma 5 Este 0 -- -- 82
2020-01-12 13:00:00 2.6 2 Sudeste 5 Sudeste 0 -- -- 98
2020-01-12 12:00:00 0.3 2 Sur 5 Sudeste 0 -- -- 98
2020-01-12 11:00:00 -1 0 Calma 4 Sudoeste 0 -- -- 98
2020-01-12 10:00:00 -1.7 0 Calma 4 Sudoeste 0 -- -- 98
2020-01-12 09:00:00 -1.6 0 Calma 4 Sur 0 -- -- 98
2020-01-12 08:00:00 -1.8 3 Sudoeste 5 Sudoeste 0 -- -- 98
2020-01-12 07:00:00 -1.4 2 Sudoeste 5 Sudoeste 0 -- -- 98
2020-01-12 06:00:00 -1.5 0 Calma 3 Sudeste 0 -- -- 98
2020-01-12 05:00:00 -1.3 0 Calma 4 Sur 0 -- -- 98
2020-01-12 04:00:00 -1.1 0 Calma 4 Sudeste 0 -- -- 98
2020-01-12 03:00:00 -0.8 0 Calma 3 Norte 0 -- -- 98
2020-01-12 02:00:00 -0.5 0 Calma 3 Norte 0 -- -- 98
2020-01-12 01:00:00 -0.4 0 Calma 2 Sur 0 -- -- 98
2020-01-12 00:00:00 -0.6 0 Calma 4 Noroeste 0 -- -- 97
2020-01-11 23:00:00 -0.5 0 Calma 3 Sudeste 0 -- -- 97
2020-01-11 22:00:00 -0.4 0 Calma 2 Sudeste 0 -- -- 96
2020-01-11 21:00:00 0.2 0 Calma 3 Sudoeste 0 -- -- 95
2020-01-11 20:00:00 1 0 Calma 3 Sudoeste 0 -- -- 94
2020-01-11 19:00:00 2.6 0 Calma 4 Sudoeste 0 -- -- 92
2020-01-11 18:00:00 4.4 0 Calma 6 Sudoeste 0 -- -- 87
2020-01-11 17:00:00 6.5 4 Sudoeste 6 Sudoeste 0 -- -- 80
2020-01-11 16:00:00 9.9 0 Calma 3 Sudoeste 0 -- -- 81
2020-01-11 15:00:00 7 0 Calma 4 Nordeste 0 -- -- 98
2020-01-11 14:00:00 4.2 0 Calma 6 Nordeste 0 -- -- 98
2020-01-11 13:00:00 3.3 0 Calma 4 Sur 0 -- -- 98
2020-01-11 12:00:00 2.6 2 Sudeste 6 Sudeste 0 -- -- 98
2020-01-11 11:00:00 2 2 Este 5 Nordeste 0 -- -- 98
2020-01-11 10:00:00 1.3 0 Calma 5 Nordeste 0 -- -- 98
2020-01-11 09:00:00 1.8 3 Nordeste 6 Nordeste 0 -- -- 98
2020-01-11 08:00:00 1.8 3 Nordeste 7 Sudoeste 0 -- -- 98
2020-01-11 07:00:00 1.7 3 Nordeste 5 Nordeste 0 -- -- 98
2020-01-11 06:00:00 1.7 2 Nordeste 4 Nordeste 0 -- -- 98
2020-01-11 05:00:00 2.4 2 Sudeste 4 Sudeste 0 -- -- 98
2020-01-11 04:00:00 2.7 0 Calma 3 Sur 0 -- -- 98
2020-01-11 03:00:00 3 0 Calma 3 Nordeste 0 -- -- 98
2020-01-11 02:00:00 3.3 3 Nordeste 5 Nordeste 0 -- -- 98
2020-01-11 01:00:00 3.8 0 Calma 2 Norte 0 -- -- 97
2020-01-11 00:00:00 4.2 0 Calma 2 Nordeste 0 -- -- 97
2020-01-10 23:00:00 4.5 0 Calma 2 Sudeste 0 -- -- 97
2020-01-10 22:00:00 5.4 0 Calma 4 Norte 0 -- -- 97
2020-01-10 21:00:00 6.3 0 Calma 7 Noroeste 0 -- -- 97
2020-01-10 20:00:00 6.7 0 Calma 4 Sur 0 -- -- 96
2020-01-10 19:00:00 7.5 2 Este 6 Sudeste 0.5 -- -- 96
2020-01-10 18:00:00 7.9 0 Calma 6 Sudoeste 0.6 -- -- 94
2020-01-10 17:00:00 8.3 2 Sur 15 Norte 0.2 -- -- 92
2020-01-10 16:00:00 8.7 7 Norte 17 Norte 2.1 -- -- 83
2020-01-10 15:00:00 8.6 4 Sur 9 Sur 2.3 -- -- 93
2020-01-10 14:00:00 8.7 0 Calma 7 Sudeste 1.3 -- -- 92
2020-01-10 13:00:00 8.6 2 Nordeste 14 Norte 2.2 -- -- 86
2020-01-10 12:00:00 8.7 2 Sudeste 14 Sudoeste 2.1 -- -- 91
2020-01-10 11:00:00 8 3 Norte 8 Sudoeste 1 -- -- 97
2020-01-10 10:00:00 6.8 2 Sudoeste 5 Sudoeste 0.4 -- -- 97
2020-01-10 09:00:00 6.4 0 Calma 7 Noroeste 0.1 -- -- 97
2020-01-10 08:00:00 6 0 Calma 4 Nordeste 0.5 -- -- 97
2020-01-10 07:00:00 6.4 0 Calma 10 Sudoeste 0.8 -- -- 97
2020-01-10 06:00:00 6.3 0 Calma 4 Norte 1 -- -- 97
2020-01-10 05:00:00 6.4 0 Calma 5 Sudeste 0 -- -- 96
2020-01-10 04:00:00 7.1 3 Noroeste 9 Norte 0.2 -- -- 93
2020-01-10 03:00:00 7.5 3 Norte 14 Norte 0.6 -- -- 91
2020-01-10 02:00:00 7.1 0 Calma 8 Este 0.1 -- -- 96
2020-01-10 01:00:00 7.4 0 Calma 5 Sudeste 0.2 -- -- 96
2020-01-10 00:00:00 7.7 2 Sudoeste 7 Sudeste 0.2 -- -- 96
2020-01-09 23:00:00 8.4 0 Calma 9 Sur 0.3 -- -- 96
2020-01-09 22:00:00 8.9 3 Noroeste 5 Sur 0 -- -- 95
2020-01-09 21:00:00 9.4 2 Sudeste 12 Sudoeste 1.2 -- -- 94
2020-01-09 20:00:00 9.6 0 Calma 7 Sur 0.1 -- -- 90
2020-01-09 19:00:00 10.9 5 Sudoeste 33 Noroeste 0.2 -- -- 75
2020-01-09 18:00:00 12.1 10 Noroeste 23 Noroeste 0 -- -- 54
2020-01-09 17:00:00 12.2 10 Noroeste 32 Noroeste 0 -- -- 52
2020-01-09 16:00:00 14.1 18 Sudoeste 42 Sudoeste 0 -- -- 46
2020-01-09 15:00:00 14 7 Noroeste 25 Norte 0 -- -- 50
2020-01-09 14:00:00 13.7 8 Oeste 24 Noroeste 0 -- -- 50
2020-01-09 13:00:00 14 12 Oeste 24 Noroeste 0 -- -- 49
2020-01-09 12:00:00 13.2 6 Noroeste 26 Oeste 0 -- -- 51
2020-01-09 11:00:00 11 0 Calma 14 Noroeste 0 -- -- 60
2020-01-09 10:00:00 8.6 5 Sudoeste 14 Oeste 0 -- -- 74
2020-01-09 09:00:00 5 2 Noroeste 12 Noroeste 0 -- -- 89
2020-01-09 08:00:00 4.8 0 Calma 14 Sur 0 -- -- 86
2020-01-09 07:00:00 8.9 7 Oeste 26 Noroeste 0 -- -- 67
2020-01-09 06:00:00 9.2 7 Oeste 26 Noroeste 0 -- -- 68
2020-01-09 05:00:00 4 3 Sudeste 15 Sur 0 -- -- 95
2020-01-09 04:00:00 2.1 0 Calma 12 Noroeste 0 -- -- 98
2020-01-09 03:00:00 1.6 0 Calma 12 Sur 0 -- -- 98
2020-01-09 02:00:00 1.8 0 Calma 10 Sur 0 -- -- 98
2020-01-09 01:00:00 1.7 0 Calma 7 Sur 0 -- -- 98
2020-01-09 00:00:00 1.6 0 Calma 5 Sudoeste 0 -- -- 97
2020-01-08 23:00:00 1.9 0 Calma 4 Sudoeste 0 -- -- 97
2020-01-08 22:00:00 2.4 0 Calma 4 Sudeste 0 -- -- 96
2020-01-08 21:00:00 3.4 0 Calma 4 Sur 0 -- -- 95
2020-01-08 20:00:00 4.3 0 Calma 4 Sudoeste 0 -- -- 93
2020-01-08 19:00:00 5.8 0 Calma 3 Sur 0 -- -- 89
2020-01-08 18:00:00 8.9 0 Calma 6 Sudoeste 0 -- -- 80
2020-01-08 17:00:00 11.9 3 Sudoeste 7 Sur 0 -- -- 70
2020-01-08 16:00:00 16.4 2 Sudoeste 6 Sudoeste 0 -- -- 60
2020-01-08 15:00:00 14.7 3 Sudeste 5 Sudeste 0 -- -- 63
2020-01-08 14:00:00 12.7 0 Calma 5 Nordeste 0 -- -- 70
2020-01-08 13:00:00 9 0 Calma 6 Norte 0 -- -- 86
2020-01-08 12:00:00 5.3 2 Norte 4 Noroeste 0 -- -- 98
2020-01-08 11:00:00 3.3 0 Calma 4 Sudeste 0 -- -- 98
2020-01-08 10:00:00 2.6 0 Calma 2 Sudeste 0 -- -- 98
2020-01-08 09:00:00 1.8 0 Calma 3 Nordeste 0 -- -- 98
2020-01-08 08:00:00 1.3 0 Calma 3 Sudeste 0 -- -- 98
2020-01-08 07:00:00 1.2 0 Calma 2 Norte 0 -- -- 98
2020-01-08 06:00:00 1.2 0 Calma 3 Norte 0 -- -- 98
2020-01-08 05:00:00 1.2 0 Calma 2 Noroeste 0 -- -- 97
2020-01-08 04:00:00 1.3 0 Calma 3 Sudeste 0 -- -- 97
2020-01-08 03:00:00 1.6 0 Calma 2 Sur 0 -- -- 97
2020-01-08 02:00:00 1.8 0 Calma 2 Sudeste 0 -- -- 97
2020-01-08 01:00:00 1.9 0 Calma 2 Sudoeste 0 -- -- 97
2020-01-08 00:00:00 2.2 0 Calma 0 Calma 0 -- -- 96
2020-01-07 23:00:00 2.5 0 Calma 2 Sur 0 -- -- 96
2020-01-07 22:00:00 3.2 0 Calma 3 Sur 0 -- -- 95
2020-01-07 21:00:00 4.1 0 Calma 2 Sudoeste 0 -- -- 94
2020-01-07 20:00:00 5 0 Calma 3 Sudeste 0 -- -- 92
2020-01-07 19:00:00 6.3 0 Calma 5 Sur 0 -- -- 89
2020-01-07 18:00:00 8.6 0 Calma 5 Sudoeste 0 -- -- 79
2020-01-07 17:00:00 11.1 3 Sudoeste 5 Sudoeste 0 -- -- 69
2020-01-07 16:00:00 15.1 0 Calma 5 Sudeste 0 -- -- 54
2020-01-07 15:00:00 13.8 3 Sudeste 6 Noroeste 0 -- -- 56
2020-01-07 14:00:00 12.2 3 Sudeste 6 Sudeste 0 -- -- 63
2020-01-07 13:00:00 9.5 2 Sudeste 8 Noroeste 0 -- -- 79
2020-01-07 12:00:00 6.6 2 Norte 5 Norte 0 -- -- 98
2020-01-07 11:00:00 4.5 0 Calma 5 Sur 0 -- -- 98
2020-01-07 10:00:00 3.7 0 Calma 4 Sur 0 -- -- 98
2020-01-07 09:00:00 2 0 Calma 3 Sudoeste 0 -- -- 98
2020-01-07 08:00:00 2.3 0 Calma 4 Noroeste 0 -- -- 98
2020-01-07 07:00:00 3.8 0 Calma 6 Noroeste 0 -- -- 98
2020-01-07 06:00:00 3.7 0 Calma 5 Noroeste 0 -- -- 97
2020-01-07 05:00:00 2.5 0 Calma 0 Calma 0 -- -- 96
2020-01-07 04:00:00 2.6 0 Calma 4 Noroeste 0 -- -- 96
2020-01-07 03:00:00 4.9 0 Calma 5 Noroeste 0 -- -- 97
2020-01-07 02:00:00 4.7 0 Calma 4 Noroeste 0 -- -- 97
2020-01-07 01:00:00 4.1 3 Noroeste 5 Noroeste 0 -- -- 96
2020-01-07 00:00:00 3.5 0 Calma 0 Calma 0 -- -- 94
2020-01-06 23:00:00 4.4 2 Sudoeste 4 Sur 0 -- -- 93
2020-01-06 22:00:00 5.9 0 Calma 4 Noroeste 0 -- -- 94
2020-01-06 21:00:00 5.4 0 Calma 5 Noroeste 0 -- -- 94
2020-01-06 20:00:00 4.5 0 Calma 4 Sur 0 -- -- 92
2020-01-06 19:00:00 6 0 Calma 8 Este 0 -- -- 86
2020-01-06 18:00:00 8.8 0 Calma 14 Sudeste 0 -- -- 76
2020-01-06 17:00:00 11.3 6 Este 14 Este 0 -- -- 58
2020-01-06 16:00:00 15.5 4 Sudoeste 9 Sudoeste 0 -- -- 38
2020-01-06 15:00:00 14.4 3 Noroeste 14 Noroeste 0 -- -- 40
2020-01-06 14:00:00 12.8 2 Sudeste 5 Este 0 -- -- 48
2020-01-06 13:00:00 9.4 2 Sudeste 5 Sudeste 0 -- -- 75
2020-01-06 12:00:00 5 2 Sudeste 5 Este 0 -- -- 85
2020-01-06 11:00:00 1.5 0 Calma 4 Sudeste 0 -- -- 98
2020-01-06 10:00:00 -0.9 0 Calma 5 Sudeste 0 -- -- 98